Startpagina
METAR-TAF:

METAR-TAF

Vliegvelden :

Washington, Virginia, Verenigde Staten

Washington Dulles International Airport

breedte: 38-56-05N, lengte: 077-26-51W, hoogte: 95 m

Actueel weer

Dit bericht is 29 minuten geleden gemaakt, om 11:52 UTC
Weinig wind
Temperatuur 7°C
Vochtigheid 100%
Druk 1027 hPa
Zicht: 16.1 km
Verspreide wolken op 25000 ft

METAR: KIAD 211152Z 00000KT 10SM SCT250 07/07 A3033 RMK AO2 SLP272 T00670067 10083 20056 53016

Tijdstip: 08:21 (12:21 UTC)

Verwachting

Dit bericht is 49 minuten geleden gemaakt, om 11:32 UTC
Verwachting geldig van 21 om 12 UTC tot 22 om 18 UTC
Wind 3 kt uit variabele richting
Zicht: 10 km
Onbewolkt

TAF: KIAD 211132Z 2112/2218 VRB03KT P6SM SKC

Waarnemingen en weersverwachtingen van meer dan 4000 vliegvelden (METAR en TAF).

De beschikbare stations zijn de gele en rode punten op de kaart.

Ga met uw muis naar het station om de naam te zien.

Klik dan om waarnemingen en weersverwachtingen te zien.

kaart wijzigen: klik op de groene knoppen met een zwart kruis om in te zoomen, op de groene knop met een streepje om uit te zoomen of op de groene pijlen voor aangrenzende kaarten.


METAR-TAF: